createdAt,value
2018-05-25T00:00:42.340Z,75.40
2018-05-25T00:03:10.633Z,76.20
2018-05-25T00:05:38.189Z,75.40
2018-05-25T00:08:05.716Z,75.30
2018-05-25T00:10:33.250Z,75.20
2018-05-25T00:13:00.762Z,75.00
2018-05-25T00:15:28.306Z,75.10
2018-05-25T00:17:55.832Z,75.30
2018-05-25T00:20:23.380Z,75.40
2018-05-25T00:22:50.898Z,75.30
2018-05-25T00:25:18.423Z,75.50
2018-05-25T00:27:45.947Z,75.60
2018-05-25T00:30:13.472Z,75.40
2018-05-25T00:32:40.988Z,75.10
2018-05-25T00:35:08.515Z,75.40
2018-05-25T00:37:36.040Z,74.90
2018-05-25T00:40:03.563Z,75.30
2018-05-25T00:42:31.092Z,75.30
2018-05-25T00:44:58.619Z,75.50
2018-05-25T00:47:26.904Z,75.90
2018-05-25T00:49:54.427Z,75.30
2018-05-25T00:52:21.948Z,75.20
2018-05-25T00:55:01.268Z,75.00
2018-05-25T00:57:30.497Z,75.20
2018-05-25T00:59:58.015Z,75.10
2018-05-25T01:02:25.536Z,75.30
2018-05-25T01:04:53.058Z,75.00
2018-05-25T01:07:20.585Z,75.00
2018-05-25T01:09:48.107Z,74.80
2018-05-25T01:12:15.623Z,75.00
2018-05-25T01:14:43.148Z,75.00
2018-05-25T01:17:10.674Z,75.10
2018-05-25T01:19:38.194Z,74.80
2018-05-25T01:22:05.715Z,75.30
2018-05-25T01:24:33.238Z,74.90
2018-05-25T01:27:00.765Z,75.40
2018-05-25T01:29:29.063Z,75.60
2018-05-25T01:31:56.588Z,75.40
2018-05-25T01:34:24.109Z,75.60
2018-05-25T01:36:51.636Z,75.30
2018-05-25T01:39:19.932Z,75.30
2018-05-25T01:41:47.451Z,75.10
2018-05-25T01:44:15.013Z,75.70
2018-05-25T01:46:42.560Z,75.50
2018-05-25T01:49:10.079Z,75.80
2018-05-25T01:51:37.615Z,75.70
2018-05-25T01:54:05.430Z,75.50
2018-05-25T01:56:32.980Z,75.60
2018-05-25T01:59:00.502Z,75.70
2018-05-25T02:01:28.043Z,75.90
2018-05-25T02:03:55.566Z,76.00
2018-05-25T02:06:23.117Z,75.90
2018-05-25T02:08:50.668Z,75.90
2018-05-25T02:11:18.368Z,75.90
2018-05-25T02:13:45.911Z,76.10
2018-05-25T02:16:14.314Z,76.40
2018-05-25T02:18:41.841Z,76.30
2018-05-25T02:21:09.360Z,76.00
2018-05-25T02:23:36.882Z,76.30
2018-05-25T02:26:04.432Z,76.20
2018-05-25T02:28:32.790Z,76.50
2018-05-25T02:31:00.309Z,76.60
2018-05-25T02:33:27.831Z,76.50
2018-05-25T02:35:55.348Z,76.50
2018-05-25T02:38:22.876Z,76.70
2018-05-25T02:40:50.407Z,76.80
2018-05-25T02:43:17.927Z,76.50
2018-05-25T02:45:45.459Z,76.50
2018-05-25T02:48:12.980Z,76.60
2018-05-25T02:50:40.495Z,76.60
2018-05-25T02:53:08.070Z,76.80
2018-05-25T02:55:35.563Z,76.70
2018-05-25T02:58:03.084Z,76.90
2018-05-25T03:00:30.599Z,77.00
2018-05-25T03:02:58.125Z,77.10
2018-05-25T03:05:25.652Z,76.90
2018-05-25T03:07:53.171Z,76.80
2018-05-25T03:10:20.696Z,77.00
2018-05-25T03:12:48.979Z,77.30
2018-05-25T03:15:16.504Z,77.30
2018-05-25T03:17:44.060Z,77.10
2018-05-25T03:20:11.587Z,77.30
2018-05-25T03:22:39.098Z,77.30
2018-05-25T03:25:06.620Z,77.50
2018-05-25T03:27:34.143Z,77.50
2018-05-25T03:30:01.666Z,77.30
2018-05-25T03:32:29.183Z,77.40
2018-05-25T03:34:56.703Z,77.50
2018-05-25T03:37:24.220Z,77.50
2018-05-25T03:39:51.743Z,77.40
2018-05-25T03:42:19.264Z,77.30
2018-05-25T03:44:47.584Z,77.30
2018-05-25T03:47:15.103Z,77.30
2018-05-25T03:49:42.623Z,77.30
2018-05-25T03:52:10.140Z,77.30
2018-05-25T03:54:37.667Z,77.20
2018-05-25T03:57:05.192Z,77.20
2018-05-25T03:59:44.559Z,77.20
2018-05-25T04:02:12.071Z,77.00
2018-05-25T04:04:40.226Z,77.20
2018-05-25T04:07:08.513Z,77.10
2018-05-25T04:09:36.043Z,77.10
2018-05-25T04:12:04.392Z,77.00
2018-05-25T04:14:31.924Z,77.20
2018-05-25T04:16:59.448Z,77.30
2018-05-25T04:19:26.967Z,77.30
2018-05-25T04:21:54.487Z,77.40
2018-05-25T04:24:22.016Z,77.60
2018-05-25T04:26:49.535Z,77.60
2018-05-25T04:29:17.055Z,77.60
2018-05-25T04:31:44.571Z,77.20
2018-05-25T04:34:12.091Z,77.30
2018-05-25T04:36:39.616Z,77.30
2018-05-25T04:39:07.143Z,77.30
2018-05-25T04:41:34.683Z,77.30
2018-05-25T04:44:02.203Z,77.30
2018-05-25T04:46:29.722Z,77.20
2018-05-25T04:48:57.244Z,77.30
2018-05-25T04:51:24.760Z,77.30
2018-05-25T04:53:52.281Z,77.30
2018-05-25T04:56:19.809Z,77.30
2018-05-25T04:58:48.127Z,77.50
2018-05-25T05:01:15.645Z,77.50
2018-05-25T05:03:43.161Z,77.40
2018-05-25T05:06:10.680Z,77.30
2018-05-25T05:08:38.959Z,77.20
2018-05-25T05:11:06.476Z,77.20
2018-05-25T05:13:34.007Z,76.90
2018-05-25T05:16:01.532Z,76.80
2018-05-25T05:18:29.844Z,77.10
2018-05-25T05:20:57.362Z,77.10
2018-05-25T05:23:24.912Z,77.20
2018-05-25T05:25:53.694Z,77.30
2018-05-25T05:28:21.244Z,77.30
2018-05-25T05:30:48.776Z,76.70
2018-05-25T05:33:16.295Z,77.00
2018-05-25T05:35:44.582Z,77.70
2018-05-25T05:38:12.099Z,76.80
2018-05-25T05:40:39.623Z,76.60
2018-05-25T05:43:07.147Z,76.50
2018-05-25T05:45:34.679Z,76.70
2018-05-25T05:48:02.205Z,76.50
2018-05-25T05:50:29.735Z,76.60
2018-05-25T05:52:57.255Z,76.50
2018-05-25T05:55:24.780Z,76.20
2018-05-25T05:57:52.300Z,76.10
2018-05-25T06:00:19.833Z,76.10
2018-05-25T06:02:47.351Z,75.80
2018-05-25T06:05:15.667Z,75.30
2018-05-25T06:07:43.187Z,75.30
2018-05-25T06:10:10.728Z,76.20
2018-05-25T06:12:38.246Z,74.90
2018-05-25T06:15:05.781Z,74.90
2018-05-25T06:17:33.296Z,74.90
2018-05-25T06:20:00.859Z,74.10
2018-05-25T06:22:28.351Z,74.50
2018-05-25T06:24:55.866Z,74.40
2018-05-25T06:27:23.731Z,74.10
2018-05-25T06:29:51.253Z,73.50
2018-05-25T06:32:18.779Z,73.30
2018-05-25T06:34:46.367Z,73.00
2018-05-25T06:37:14.634Z,72.60
2018-05-25T06:39:42.149Z,72.60
2018-05-25T06:42:09.692Z,72.30
2018-05-25T06:44:37.211Z,71.90
2018-05-25T06:47:05.504Z,69.30
2018-05-25T06:49:33.027Z,69.30
2018-05-25T06:52:00.561Z,68.10
2018-05-25T06:54:28.103Z,67.40
2018-05-25T06:56:55.634Z,67.70
2018-05-25T06:59:23.176Z,65.30
2018-05-25T07:01:50.699Z,64.30
2018-05-25T07:04:18.232Z,63.90
2018-05-25T07:06:45.763Z,62.40
2018-05-25T07:09:13.308Z,61.80
2018-05-25T07:11:41.598Z,61.20
2018-05-25T07:14:09.119Z,61.70
2018-05-25T07:16:36.644Z,61.90
2018-05-25T07:19:04.200Z,61.00
2018-05-25T07:21:31.724Z,59.50
2018-05-25T07:23:59.255Z,57.60
2018-05-25T07:26:26.766Z,56.90
2018-05-25T07:28:54.278Z,56.30
2018-05-25T07:31:21.799Z,55.40
2018-05-25T07:33:49.327Z,55.60
2018-05-25T07:36:16.847Z,55.20
2018-05-25T07:38:44.358Z,55.30
2018-05-25T07:41:12.639Z,55.70
2018-05-25T07:43:40.160Z,55.70
2018-05-25T07:46:07.679Z,55.20
2018-05-25T07:48:35.198Z,55.10
2018-05-25T07:51:02.719Z,54.40
2018-05-25T07:53:30.241Z,54.70
2018-05-25T07:55:57.829Z,55.30
2018-05-25T07:58:25.352Z,56.10
2018-05-25T08:00:52.874Z,55.00
2018-05-25T08:03:20.396Z,52.80
2018-05-25T08:05:47.920Z,51.50
2018-05-25T08:08:15.440Z,49.50
2018-05-25T08:10:42.965Z,46.70
2018-05-25T08:13:10.496Z,46.30
2018-05-25T08:15:38.025Z,46.20
2018-05-25T08:18:05.541Z,46.90
2018-05-25T08:20:33.063Z,47.00
2018-05-25T08:23:00.600Z,45.40
2018-05-25T08:25:28.131Z,43.80
2018-05-25T08:27:55.664Z,42.60
2018-05-25T08:30:23.252Z,40.60
2018-05-25T08:32:50.766Z,39.70
2018-05-25T08:35:18.306Z,38.30
2018-05-25T08:37:45.835Z,37.50
2018-05-25T08:40:13.380Z,37.50
2018-05-25T08:42:41.670Z,38.50
2018-05-25T08:45:09.208Z,38.50
2018-05-25T08:47:36.735Z,38.80
2018-05-25T08:50:04.279Z,39.60
2018-05-25T08:52:31.810Z,40.10
2018-05-25T08:54:59.330Z,41.90
2018-05-25T08:57:26.850Z,42.10
2018-05-25T08:59:54.367Z,42.60
2018-05-25T09:02:22.401Z,43.70
2018-05-25T09:04:49.919Z,45.00
2018-05-25T09:07:17.435Z,44.70
2018-05-25T09:09:44.959Z,45.20
2018-05-25T09:12:12.484Z,45.90
2018-05-25T09:14:39.999Z,46.30
2018-05-25T09:17:07.527Z,46.20
2018-05-25T09:19:35.042Z,46.70
2018-05-25T09:22:02.576Z,47.60
2018-05-25T09:24:30.087Z,48.40
2018-05-25T09:26:57.611Z,48.20
2018-05-25T09:29:25.127Z,47.60
2018-05-25T09:31:52.654Z,48.10
2018-05-25T09:34:20.180Z,48.60
2018-05-25T09:36:47.699Z,48.10
2018-05-25T09:39:16.071Z,48.30
2018-05-25T09:41:43.604Z,48.40
2018-05-25T09:44:11.119Z,48.70
2018-05-25T09:46:38.646Z,48.90
2018-05-25T09:49:06.171Z,49.20
2018-05-25T09:51:33.699Z,49.20
2018-05-25T09:54:01.264Z,49.40
2018-05-25T09:56:28.795Z,49.60
2018-05-25T09:58:56.319Z,49.20
2018-05-25T10:01:23.837Z,49.30
2018-05-25T10:03:51.359Z,48.90
2018-05-25T10:06:18.879Z,48.80
2018-05-25T10:08:46.411Z,49.60
2018-05-25T10:11:13.964Z,50.00
2018-05-25T10:13:41.489Z,50.40
2018-05-25T10:16:09.038Z,50.10
2018-05-25T10:18:36.559Z,50.20
2018-05-25T10:21:04.088Z,50.10
2018-05-25T10:23:31.604Z,49.40
2018-05-25T10:25:59.135Z,48.70
2018-05-25T10:28:26.652Z,48.60
2018-05-25T10:30:54.935Z,48.30
2018-05-25T10:33:22.479Z,48.20
2018-05-25T10:35:50.019Z,48.50
2018-05-25T10:38:17.539Z,48.90
2018-05-25T10:40:45.867Z,49.50
2018-05-25T10:43:14.171Z,49.70
2018-05-25T10:45:41.746Z,50.00
2018-05-25T10:48:09.227Z,50.60
2018-05-25T10:50:36.751Z,50.00
2018-05-25T10:53:05.316Z,49.90
2018-05-25T10:55:33.624Z,50.00
2018-05-25T10:58:01.164Z,49.90
2018-05-25T11:00:28.693Z,50.10
2018-05-25T11:02:56.231Z,50.90
2018-05-25T11:05:23.747Z,51.00
2018-05-25T11:07:51.263Z,51.10
2018-05-25T11:10:18.789Z,50.50
2018-05-25T11:12:46.299Z,51.10
2018-05-25T11:15:13.813Z,51.50
2018-05-25T11:17:41.336Z,51.40
2018-05-25T11:20:08.859Z,50.70
2018-05-25T11:22:37.061Z,51.20
2018-05-25T11:25:04.566Z,50.30
2018-05-25T11:27:32.084Z,50.40
2018-05-25T11:29:59.605Z,50.70
2018-05-25T11:32:27.120Z,50.70
2018-05-25T11:34:54.659Z,49.80
2018-05-25T11:37:22.173Z,49.80
2018-05-25T11:39:49.683Z,50.30
2018-05-25T11:42:17.970Z,50.60
2018-05-25T11:44:45.480Z,50.50
2018-05-25T11:47:13.020Z,50.20
2018-05-25T11:49:40.540Z,51.10
2018-05-25T11:52:08.087Z,51.30
2018-05-25T11:54:35.668Z,51.90
2018-05-25T11:57:03.211Z,51.60
2018-05-25T11:59:30.723Z,51.80
2018-05-25T12:01:58.241Z,52.10
2018-05-25T12:04:25.763Z,52.20
2018-05-25T12:06:53.280Z,52.30
2018-05-25T12:09:20.791Z,52.50
2018-05-25T12:11:48.304Z,52.20
2018-05-25T12:14:15.831Z,50.00
2018-05-25T12:16:43.342Z,50.50
2018-05-25T12:19:10.859Z,50.70
2018-05-25T12:21:38.375Z,51.10
2018-05-25T12:24:05.891Z,51.20
2018-05-25T12:26:33.419Z,52.00
2018-05-25T12:29:00.929Z,51.80
2018-05-25T12:31:28.963Z,51.20
2018-05-25T12:33:56.477Z,52.00
2018-05-25T12:36:23.992Z,52.30
2018-05-25T12:38:51.512Z,52.60
2018-05-25T12:41:19.027Z,52.60
2018-05-25T12:43:46.543Z,51.80
2018-05-25T12:46:14.071Z,52.30
2018-05-25T12:48:41.599Z,53.30
2018-05-25T12:51:09.107Z,52.00
2018-05-25T12:53:36.627Z,51.70
2018-05-25T12:56:04.145Z,51.50
2018-05-25T12:58:31.666Z,50.20
2018-05-25T13:00:59.183Z,49.50
2018-05-25T13:03:26.704Z,49.90
2018-05-25T13:05:54.213Z,50.00
2018-05-25T13:08:21.735Z,50.80
2018-05-25T13:10:49.248Z,50.90
2018-05-25T13:13:16.766Z,50.20
2018-05-25T13:15:44.289Z,49.60
2018-05-25T13:18:11.798Z,49.60
2018-05-25T13:20:39.309Z,50.20
2018-05-25T13:23:06.842Z,50.00
2018-05-25T13:25:34.464Z,50.30
2018-05-25T13:28:01.995Z,50.30
2018-05-25T13:30:29.500Z,50.10
2018-05-25T13:32:57.443Z,49.90
2018-05-25T13:35:24.950Z,49.50
2018-05-25T13:37:52.463Z,49.80
2018-05-25T13:40:19.986Z,50.50
2018-05-25T13:42:47.515Z,50.00
2018-05-25T13:45:15.039Z,50.10
2018-05-25T13:47:42.551Z,50.80
2018-05-25T13:50:10.835Z,50.10
2018-05-25T13:52:38.346Z,50.00
2018-05-25T13:55:05.867Z,50.60
2018-05-25T13:57:33.383Z,49.90
2018-05-25T14:00:00.907Z,50.00
2018-05-25T14:02:28.415Z,50.60
2018-05-25T14:04:55.927Z,50.80
2018-05-25T14:07:23.441Z,51.10
2018-05-25T14:09:50.963Z,51.30
2018-05-25T14:12:18.479Z,51.10
2018-05-25T14:14:45.999Z,50.70
2018-05-25T14:17:13.513Z,50.70
2018-05-25T14:19:41.023Z,50.80
2018-05-25T14:22:08.537Z,50.90
2018-05-25T14:24:36.042Z,50.70
2018-05-25T14:27:03.561Z,51.20
2018-05-25T14:29:31.067Z,51.30
2018-05-25T14:31:58.582Z,51.50
2018-05-25T14:34:26.095Z,51.70
2018-05-25T14:36:53.607Z,52.10
2018-05-25T14:39:21.139Z,52.40
2018-05-25T14:41:48.656Z,52.20
2018-05-25T14:44:16.175Z,52.10
2018-05-25T14:46:43.699Z,52.20
2018-05-25T14:49:11.224Z,52.90
2018-05-25T14:51:38.757Z,52.30
2018-05-25T14:54:06.275Z,52.10
2018-05-25T14:56:33.791Z,52.10
2018-05-25T14:59:01.355Z,52.50
2018-05-25T15:01:28.863Z,52.40
2018-05-25T15:03:57.163Z,52.70
2018-05-25T15:06:24.688Z,52.10
2018-05-25T15:08:52.236Z,52.30
2018-05-25T15:11:19.783Z,52.60
2018-05-25T15:13:47.291Z,52.30
2018-05-25T15:16:14.803Z,52.40
2018-05-25T15:18:42.319Z,52.60
2018-05-25T15:21:09.904Z,52.70
2018-05-25T15:23:37.463Z,52.30
2018-05-25T15:26:04.996Z,52.60
2018-05-25T15:28:33.285Z,53.00
2018-05-25T15:31:00.925Z,52.90
2018-05-25T15:33:28.347Z,52.60
2018-05-25T15:35:55.863Z,52.60
2018-05-25T15:38:23.414Z,52.60
2018-05-25T15:40:50.932Z,52.60
2018-05-25T15:43:18.435Z,52.60
2018-05-25T15:45:45.955Z,52.80
2018-05-25T15:48:13.473Z,53.00
2018-05-25T15:50:40.982Z,52.70
2018-05-25T15:53:08.499Z,53.10
2018-05-25T15:55:36.040Z,53.50
2018-05-25T15:58:03.563Z,53.50
2018-05-25T16:00:31.855Z,53.30
2018-05-25T16:02:59.419Z,53.30
2018-05-25T16:05:26.954Z,53.20
2018-05-25T16:07:55.248Z,53.90
2018-05-25T16:10:22.776Z,53.90
2018-05-25T16:12:50.288Z,54.10
2018-05-25T16:15:17.805Z,54.00
2018-05-25T16:17:45.330Z,53.40
2018-05-25T16:20:12.843Z,53.50
2018-05-25T16:22:40.367Z,54.20
2018-05-25T16:25:07.892Z,53.80
2018-05-25T16:27:35.411Z,52.80
2018-05-25T16:30:02.951Z,52.40
2018-05-25T16:32:30.475Z,51.50
2018-05-25T16:34:58.000Z,52.30
2018-05-25T16:37:26.274Z,52.20
2018-05-25T16:39:53.792Z,52.20
2018-05-25T16:42:21.304Z,52.40
2018-05-25T16:44:49.608Z,52.50
2018-05-25T16:47:17.123Z,52.50
2018-05-25T16:49:44.640Z,52.60
2018-05-25T16:52:12.152Z,52.80
2018-05-25T16:54:39.665Z,52.70
2018-05-25T16:57:07.187Z,52.90
2018-05-25T16:59:34.701Z,52.90
2018-05-25T17:02:02.225Z,52.80
2018-05-25T17:04:29.747Z,52.40
2018-05-25T17:06:57.255Z,52.20
2018-05-25T17:09:24.768Z,52.60
2018-05-25T17:11:52.279Z,52.50
2018-05-25T17:14:19.795Z,52.60
2018-05-25T17:16:48.091Z,53.10
2018-05-25T17:19:15.619Z,53.00
2018-05-25T17:21:43.131Z,53.00
2018-05-25T17:24:10.639Z,53.00
2018-05-25T17:26:38.156Z,53.20
2018-05-25T17:29:05.677Z,53.50
2018-05-25T17:31:33.203Z,53.80
2018-05-25T17:34:00.714Z,54.10
2018-05-25T17:36:28.223Z,54.30
2018-05-25T17:38:55.749Z,54.30
2018-05-25T17:41:23.260Z,54.40
2018-05-25T17:43:50.773Z,54.60
2018-05-25T17:46:18.287Z,55.20
2018-05-25T17:48:46.572Z,55.20
2018-05-25T17:51:14.086Z,55.10
2018-05-25T17:53:41.599Z,55.10
2018-05-25T17:56:09.111Z,55.10
2018-05-25T17:58:36.636Z,55.20
2018-05-25T18:01:04.148Z,55.30
2018-05-25T18:03:32.427Z,55.70
2018-05-25T18:05:59.940Z,55.70
2018-05-25T18:08:27.467Z,55.60
2018-05-25T18:10:55.974Z,56.10
2018-05-25T18:13:23.491Z,56.10
2018-05-25T18:15:51.804Z,56.20
2018-05-25T18:18:19.310Z,56.20
2018-05-25T18:20:46.852Z,56.40
2018-05-25T18:23:14.377Z,56.50
2018-05-25T18:25:41.896Z,56.40
2018-05-25T18:28:09.423Z,56.60
2018-05-25T18:30:36.937Z,56.70
2018-05-25T18:33:04.458Z,56.60
2018-05-25T18:35:31.981Z,56.70
2018-05-25T18:37:59.498Z,56.80
2018-05-25T18:40:27.031Z,56.80
2018-05-25T18:42:54.555Z,57.80
2018-05-25T18:45:22.077Z,56.90
2018-05-25T18:47:49.591Z,56.80
2018-05-25T18:50:17.111Z,56.80
2018-05-25T18:52:44.625Z,56.90
2018-05-25T18:55:12.140Z,56.80
2018-05-25T18:57:39.659Z,57.00
2018-05-25T19:00:07.175Z,57.00
2018-05-25T19:02:35.455Z,57.40
2018-05-25T19:05:02.983Z,57.30
2018-05-25T19:07:30.499Z,57.40
2018-05-25T19:09:58.096Z,57.70
2018-05-25T19:12:25.630Z,57.80
2018-05-25T19:14:53.160Z,58.00
2018-05-25T19:17:20.679Z,58.20
2018-05-25T19:19:48.188Z,58.60
2018-05-25T19:22:15.704Z,58.90
2018-05-25T19:24:43.228Z,59.10
2018-05-25T19:27:10.747Z,59.20
2018-05-25T19:29:39.031Z,59.00
2018-05-25T19:32:06.560Z,59.00
2018-05-25T19:34:34.083Z,59.00
2018-05-25T19:37:01.595Z,59.30
2018-05-25T19:39:29.867Z,59.30
2018-05-25T19:41:57.385Z,59.20
2018-05-25T19:44:24.907Z,59.60
2018-05-25T19:46:52.428Z,59.50
2018-05-25T19:49:19.951Z,59.60
2018-05-25T19:51:47.492Z,59.70
2018-05-25T19:54:15.018Z,59.90
2018-05-25T19:56:42.557Z,60.10
2018-05-25T19:59:10.085Z,60.40
2018-05-25T20:01:37.631Z,61.10
2018-05-25T20:04:05.180Z,60.40
2018-05-25T20:06:33.463Z,60.50
2018-05-25T20:09:00.999Z,60.30
2018-05-25T20:11:28.511Z,60.50
2018-05-25T20:13:56.036Z,60.80
2018-05-25T20:16:24.325Z,61.20
2018-05-25T20:18:51.853Z,61.10
2018-05-25T20:21:19.379Z,61.40
2018-05-25T20:23:46.900Z,61.20
2018-05-25T20:26:15.191Z,62.50
2018-05-25T20:28:42.716Z,62.50
2018-05-25T20:31:10.234Z,62.00
2018-05-25T20:33:37.779Z,62.60
2018-05-25T20:36:05.311Z,62.60
2018-05-25T20:38:32.838Z,62.70
2018-05-25T20:41:00.363Z,63.00
2018-05-25T20:43:27.880Z,62.60
2018-05-25T20:45:55.401Z,63.00
2018-05-25T20:48:22.927Z,63.20
2018-05-25T20:50:50.479Z,63.30
2018-05-25T20:53:18.052Z,64.00
2018-05-25T20:55:45.545Z,63.30
2018-05-25T20:58:13.103Z,63.80
2018-05-25T21:00:40.639Z,63.80
2018-05-25T21:03:08.164Z,63.70
2018-05-25T21:05:35.689Z,64.20
2018-05-25T21:08:03.233Z,63.70
2018-05-25T21:10:30.760Z,64.30
2018-05-25T21:12:58.299Z,64.20
2018-05-25T21:15:25.834Z,64.50
2018-05-25T21:17:53.395Z,64.90
2018-05-25T21:20:20.931Z,65.30
2018-05-25T21:22:48.487Z,65.20
2018-05-25T21:25:16.607Z,65.20
2018-05-25T21:27:44.143Z,65.80
2018-05-25T21:30:11.673Z,65.10
2018-05-25T21:32:39.227Z,65.70
2018-05-25T21:35:06.879Z,66.00
2018-05-25T21:37:34.415Z,65.80
2018-05-25T21:40:01.931Z,66.00
2018-05-25T21:42:29.451Z,65.50
2018-05-25T21:44:56.978Z,65.30
2018-05-25T21:47:24.507Z,65.30
2018-05-25T21:49:52.027Z,65.10
2018-05-25T21:52:20.315Z,66.10
2018-05-25T21:54:47.839Z,66.00
2018-05-25T21:57:15.356Z,66.00
2018-05-25T21:59:42.881Z,65.70
2018-05-25T22:02:11.179Z,65.90
2018-05-25T22:04:38.704Z,66.00
2018-05-25T22:07:06.264Z,66.00
2018-05-25T22:09:33.786Z,65.90
2018-05-25T22:12:01.312Z,65.60
2018-05-25T22:14:28.839Z,65.80
2018-05-25T22:16:56.359Z,66.20
2018-05-25T22:19:23.887Z,66.00
2018-05-25T22:21:51.427Z,66.00
2018-05-25T22:24:18.943Z,66.90
2018-05-25T22:26:46.463Z,66.80
2018-05-25T22:29:14.747Z,66.90
2018-05-25T22:31:42.272Z,66.90
2018-05-25T22:34:10.559Z,66.60
2018-05-25T22:36:38.080Z,66.90
2018-05-25T22:39:05.607Z,67.10
2018-05-25T22:41:33.130Z,67.60
2018-05-25T22:44:12.400Z,66.90
2018-05-25T22:46:51.706Z,66.70
2018-05-25T22:49:30.859Z,67.20
2018-05-25T22:52:10.207Z,67.50
2018-05-25T22:54:42.464Z,67.20
2018-05-25T22:57:09.963Z,67.20
2018-05-25T22:59:37.492Z,67.30
2018-05-25T23:02:05.027Z,67.30
2018-05-25T23:04:33.281Z,67.20
2018-05-25T23:07:00.824Z,67.20
2018-05-25T23:09:28.360Z,67.40
2018-05-25T23:11:55.887Z,67.60
2018-05-25T23:14:23.407Z,67.20
2018-05-25T23:16:50.926Z,67.60
2018-05-25T23:19:19.215Z,67.40
2018-05-25T23:21:46.736Z,67.40
2018-05-25T23:24:14.259Z,67.80
2018-05-25T23:26:41.783Z,68.10
2018-05-25T23:29:10.076Z,67.70
2018-05-25T23:31:37.623Z,67.60
2018-05-25T23:34:05.156Z,67.70
2018-05-25T23:36:32.700Z,67.70
2018-05-25T23:39:00.239Z,67.90
2018-05-25T23:41:27.751Z,68.20
2018-05-25T23:43:55.295Z,68.20
2018-05-25T23:46:22.821Z,67.80
2018-05-25T23:48:50.363Z,67.90
2018-05-25T23:51:17.888Z,68.00
2018-05-25T23:53:46.175Z,68.20
2018-05-25T23:56:13.700Z,68.10
2018-05-25T23:58:41.228Z,68.30
